Time;durP1;ratioP1;P1;durP2;ratioP2;P2;SDS_P1;SDS_P2;PMS_P1;PMS_P2;Temp;Humidity;BMP_temperature;BMP_pressure;BME280_temperature;BME280_humidity;BME280_pressure;Samples;Min_cycle;Max_cycle;Signal;HPM_P1;HPM_P2
2022/04/06 00:01:01;;;;;;;6.60;2.15;;;;;;;0.55;71.33;97813.52;1786254;79;20995;-63
2022/04/06 00:03:28;;;;;;;6.03;2.60;;;;;;;0.57;71.47;97811.73;1775652;79;21519;-62
2022/04/06 00:05:54;;;;;;;6.28;2.30;;;;;;;0.57;71.58;97812.20;1791469;78;21482;-63
2022/04/06 00:08:21;;;;;;;7.47;2.67;;;;;;;0.56;71.62;97816.50;1784947;79;20922;-62
2022/04/06 00:10:48;;;;;;;5.25;2.75;;;;;;;0.57;71.65;97811.73;1791264;79;20914;-62
2022/04/06 00:13:14;;;;;;;8.27;2.57;;;;;;;0.57;71.88;97810.91;1782019;79;20982;-63
2022/04/06 00:15:41;;;;;;;6.90;3.15;;;;;;;0.58;71.87;97818.54;1767791;79;21433;-63
2022/04/06 00:18:09;;;;;;;6.10;2.45;;;;;;;0.59;72.01;97816.38;1766422;79;21013;-62
2022/04/06 00:20:36;;;;;;;5.47;2.70;;;;;;;0.61;72.19;97810.72;1761929;79;21005;-62
2022/04/06 00:23:03;;;;;;;4.47;2.60;;;;;;;0.65;72.06;97817.42;1781416;79;21401;-62
2022/04/06 00:25:30;;;;;;;4.45;2.40;;;;;;;0.69;72.21;97814.74;1772819;79;20939;-62
2022/04/06 00:27:57;;;;;;;5.10;2.60;;;;;;;0.75;72.36;97822.20;1758738;80;21153;-63
2022/04/06 00:30:23;;;;;;;4.33;2.42;;;;;;;0.78;72.45;97814.38;1779040;79;21295;-62
2022/04/06 00:32:50;;;;;;;4.17;2.10;;;;;;;0.83;72.48;97817.62;1765026;79;20985;-62
2022/04/06 00:35:29;;;;;;;7.53;2.70;;;;;;;0.85;72.56;97811.98;1774746;80;20904;-63
2022/04/06 00:38:00;;;;;;;6.17;2.25;;;;;;;0.89;72.56;97809.66;1769954;80;21170;-62
2022/04/06 00:40:27;;;;;;;4.05;2.52;;;;;;;0.92;72.70;97809.55;1758427;79;21417;-63
2022/04/06 00:42:54;;;;;;;4.20;2.50;;;;;;;0.96;72.76;97818.00;1763197;80;21675;-62
2022/04/06 00:45:25;;;;;;;5.75;2.10;;;;;;;0.99;72.87;97816.59;1765842;80;20988;-62
2022/04/06 00:47:53;;;;;;;6.10;2.90;;;;;;;1.02;72.85;97820.31;1763815;79;20948;-63
2022/04/06 00:50:21;;;;;;;5.20;2.90;;;;;;;1.03;72.88;97820.24;1772023;79;20997;-62
2022/04/06 00:52:49;;;;;;;4.33;2.60;;;;;;;1.05;72.99;97817.17;1771729;79;21646;-62
2022/04/06 00:55:16;;;;;;;5.15;2.40;;;;;;;1.08;72.98;97829.90;1763419;79;20973;-62
2022/04/06 00:57:44;;;;;;;6.33;3.12;;;;;;;1.08;73.08;97820.91;1786029;79;21040;-62
2022/04/06 01:00:11;;;;;;;6.78;3.10;;;;;;;1.10;73.16;97835.83;1781483;79;20920;-63
2022/04/06 01:02:38;;;;;;;;;;;;;;;1.13;73.20;97835.33;1760367;79;22252;-63
2022/04/06 01:05:06;;;;;;;8.35;2.83;;;;;;;1.13;73.36;97827.16;1779315;79;21582;-63
2022/04/06 01:07:33;;;;;;;7.65;2.67;;;;;;;1.13;73.42;97835.33;1777285;79;21000;-62
2022/04/06 01:10:00;;;;;;;5.72;2.85;;;;;;;1.13;73.43;97836.16;1785460;79;20950;-62
2022/04/06 01:12:28;;;;;;;6.00;3.07;;;;;;;1.14;73.44;97839.55;1793953;78;20926;-62
2022/04/06 01:14:55;;;;;;;6.30;2.55;;;;;;;1.10;73.67;97839.68;1785357;79;21175;-62
2022/04/06 01:17:22;;;;;;;6.28;2.80;;;;;;;1.08;73.62;97842.75;1792097;78;21405;-63
2022/04/06 01:19:51;;;;;;;4.20;2.60;;;;;;;1.05;73.58;97844.61;1790016;78;21044;-62
2022/04/06 01:22:19;;;;;;;7.35;3.17;;;;;;;1.02;73.59;97846.84;1774037;79;21010;-62
2022/04/06 01:24:48;;;;;;;6.53;2.70;;;;;;;0.97;73.66;97851.33;1768216;79;21494;-62
2022/04/06 01:27:15;;;;;;;4.72;3.00;;;;;;;0.93;73.71;97853.64;1767994;79;21033;-62
2022/04/06 01:29:42;;;;;;;6.00;3.10;;;;;;;0.89;73.83;97857.20;1771642;80;21479;-63
2022/04/06 01:32:13;;;;;;;5.78;2.98;;;;;;;0.85;73.87;97856.94;1770462;79;21076;-64
2022/04/06 01:34:41;;;;;;;6.92;3.08;;;;;;;0.79;73.99;97858.02;1787653;78;21499;-62
2022/04/06 01:37:10;;;;;;;6.62;2.67;;;;;;;0.75;74.00;97858.17;1782239;80;21727;-63
2022/04/06 01:39:40;;;;;;;6.30;2.85;;;;;;;0.71;74.16;97854.06;1782131;79;21619;-63
2022/04/06 01:42:10;;;;;;;5.17;2.90;;;;;;;0.68;74.23;97858.86;1761743;79;21579;-62
2022/04/06 01:44:37;;;;;;;13.65;3.47;;;;;;;0.65;74.28;97863.66;1767857;79;21037;-62
2022/04/06 01:47:06;;;;;;;5.50;3.33;;;;;;;0.62;74.30;97862.49;1761649;80;20939;-62
2022/04/06 01:52:21;;;;;;;;;;;;;;;0.59;74.44;97861.33;1755631;80;21092;-62
2022/04/06 01:55:00;;;;;;;7.70;3.05;;;;;;;0.58;74.52;97869.91;1758479;79;21626;-62
2022/04/06 01:57:26;;;;;;;10.53;3.45;;;;;;;0.55;74.60;97864.88;1764850;79;20986;-62
2022/04/06 01:59:52;;;;;;;6.05;3.12;;;;;;;0.52;74.59;97870.13;1760696;79;21518;-62
2022/04/06 02:02:21;;;;;;;5.53;3.00;;;;;;;0.51;74.68;97871.03;1729993;80;20991;-62
2022/04/06 02:04:48;;;;;;;7.45;3.25;;;;;;;0.49;74.66;97867.67;1774324;80;21001;-62
2022/04/06 02:07:15;;;;;;;5.92;2.58;;;;;;;0.49;74.72;97870.70;1795322;78;21443;-62
2022/04/06 02:09:42;;;;;;;5.87;2.60;;;;;;;0.47;74.78;97871.19;1793128;79;20996;-62
2022/04/06 02:12:10;;;;;;;11.28;3.37;;;;;;;0.44;74.91;97878.55;1795844;78;20973;-62
2022/04/06 02:14:40;;;;;;;10.30;3.47;;;;;;;0.42;74.87;97876.48;1777334;80;21378;-62
2022/04/06 02:17:07;;;;;;;8.68;2.83;;;;;;;0.39;74.94;97877.88;1764008;80;21057;-62
2022/04/06 02:19:36;;;;;;;5.58;2.70;;;;;;;0.37;75.06;97874.09;1786745;79;21040;-62
2022/04/06 02:22:05;;;;;;;10.53;2.95;;;;;;;0.36;75.07;97877.54;1779258;79;20961;-61
2022/04/06 02:24:32;;;;;;;13.08;2.75;;;;;;;0.37;75.11;97878.41;1774583;79;21018;-62
2022/04/06 02:26:59;;;;;;;4.42;2.60;;;;;;;0.37;75.20;97871.53;1786127;79;21550;-62
2022/04/06 02:29:26;;;;;;;9.57;2.50;;;;;;;0.38;75.27;97877.50;1765894;80;20990;-62
2022/04/06 02:31:53;;;;;;;8.53;3.08;;;;;;;0.35;75.26;97880.17;1772848;80;21158;-62
2022/04/06 02:34:20;;;;;;;7.97;2.83;;;;;;;0.33;75.36;97880.22;1765939;80;21611;-62
2022/04/06 02:36:46;;;;;;;9.63;2.75;;;;;;;0.34;75.42;97883.64;1764003;79;20992;-62
2022/04/06 02:39:13;;;;;;;6.67;2.40;;;;;;;0.33;75.53;97877.66;1763154;80;21527;-62
2022/04/06 02:41:42;;;;;;;6.43;3.07;;;;;;;0.34;75.62;97881.91;1782271;79;21112;-62
2022/04/06 02:44:09;;;;;;;5.50;3.30;;;;;;;0.35;75.51;97875.05;1779565;80;21138;-62
2022/04/06 02:46:43;;;;;;;8.98;3.05;;;;;;;0.33;75.58;97874.25;1778292;79;21017;-61
2022/04/06 02:49:09;;;;;;;11.00;3.33;;;;;;;0.32;75.67;97882.86;1783856;80;21012;-61
2022/04/06 02:51:35;;;;;;;8.03;2.87;;;;;;;0.32;75.73;97879.00;1780885;79;20931;-62
2022/04/06 02:54:02;;;;;;;5.17;2.53;;;;;;;0.32;75.80;97880.29;1769942;80;20962;-62
2022/04/06 02:56:29;;;;;;;9.80;3.30;;;;;;;0.33;75.93;97880.67;1765675;79;21710;-62
2022/04/06 02:58:56;;;;;;;11.77;3.37;;;;;;;0.34;75.95;97881.08;1772105;79;21688;-62
2022/04/06 03:01:23;;;;;;;6.35;2.98;;;;;;;0.37;76.10;97880.97;1783025;78;20993;-62
2022/04/06 03:03:50;;;;;;;6.23;3.07;;;;;;;0.40;76.18;97882.14;1790722;78;21274;-62
2022/04/06 03:06:17;;;;;;;;;;;;;;;0.45;76.21;97881.53;1794877;78;21629;-62
2022/04/06 03:08:44;;;;;;;8.53;3.00;;;;;;;0.50;76.32;97886.03;1763152;80;21095;-62
2022/04/06 03:11:11;;;;;;;5.58;2.70;;;;;;;0.54;76.30;97887.61;1790921;79;20968;-62
2022/04/06 03:13:38;;;;;;;8.23;2.90;;;;;;;0.55;76.29;97886.71;1787876;78;20956;-62
2022/04/06 03:16:06;;;;;;;7.10;2.47;;;;;;;0.59;76.33;97892.14;1792354;78;21076;-62
2022/04/06 03:18:33;;;;;;;6.72;3.37;;;;;;;0.63;76.37;97885.98;1783630;80;20903;-61
2022/04/06 03:21:00;;;;;;;4.97;2.83;;;;;;;0.65;76.39;97889.34;1787603;79;21493;-62
2022/04/06 03:23:26;;;;;;;8.50;4.00;;;;;;;0.65;76.43;97895.77;1779452;79;21625;-62
2022/04/06 03:25:53;;;;;;;8.23;3.67;;;;;;;0.68;76.43;97887.57;1778469;80;21025;-62
2022/04/06 03:28:20;;;;;;;7.90;3.27;;;;;;;0.71;76.57;97892.59;1766711;78;20953;-62
2022/04/06 03:30:47;;;;;;;7.80;3.15;;;;;;;0.71;76.57;97892.59;1785027;78;21417;-62
2022/04/06 03:33:15;;;;;;;10.03;3.58;;;;;;;0.72;76.54;97896.82;1762398;80;22266;-62
2022/04/06 03:35:42;;;;;;;6.92;3.08;;;;;;;0.69;76.69;97899.51;1759206;80;21569;-62
2022/04/06 03:38:08;;;;;;;13.13;3.70;;;;;;;0.72;76.74;97894.25;1770347;79;20987;-62
2022/04/06 03:40:35;;;;;;;10.23;4.05;;;;;;;0.75;76.78;97899.28;1769422;79;21051;-62
2022/04/06 03:43:02;;;;;;;6.87;2.95;;;;;;;0.76;76.79;97893.27;1755421;80;20934;-62
2022/04/06 03:45:31;;;;;;;6.17;3.15;;;;;;;0.76;76.76;97891.98;1763140;80;21081;-62
2022/04/06 03:47:58;;;;;;;7.15;3.20;;;;;;;0.72;76.76;97898.11;1775906;80;21491;-62
2022/04/06 03:50:24;;;;;;;7.40;3.10;;;;;;;0.68;76.87;97893.98;1778622;79;21044;-62
2022/04/06 03:52:51;;;;;;;7.83;3.65;;;;;;;0.65;76.87;97897.05;1778807;80;20938;-62
2022/04/06 03:55:18;;;;;;;9.88;3.30;;;;;;;0.62;76.91;97899.73;1777346;80;20927;-61
2022/04/06 03:57:45;;;;;;;8.55;3.17;;;;;;;0.59;77.01;97899.84;1769392;79;21449;-62
2022/04/06 04:00:13;;;;;;;10.50;3.35;;;;;;;0.58;77.05;97911.00;1811113;78;20905;-62
2022/04/06 04:02:40;;;;;;;4.80;2.72;;;;;;;0.58;77.12;97905.86;1785858;78;21832;-62
2022/04/06 04:05:08;;;;;;;7.70;3.30;;;;;;;0.55;77.07;97909.83;1755232;80;20955;-61
2022/04/06 04:07:37;;;;;;;10.40;3.58;;;;;;;0.53;77.13;97909.48;1762157;80;21009;-62
2022/04/06 04:10:14;;;;;;;6.87;3.25;;;;;;;0.53;77.19;97906.47;1761437;80;21448;-62
2022/04/06 04:12:39;;;;;;;9.25;3.05;;;;;;;0.52;77.25;97908.66;1770567;80;20985;-62
2022/04/06 04:15:07;;;;;;;6.17;2.90;;;;;;;0.52;77.33;97906.08;1765985;80;20930;-62
2022/04/06 04:17:33;;;;;;;5.20;3.12;;;;;;;0.54;77.39;97909.45;1762153;80;21028;-60
2022/04/06 04:20:00;;;;;;;10.60;3.50;;;;;;;0.53;77.46;97907.75;1762520;80;21037;-62
2022/04/06 04:22:27;;;;;;;8.93;3.47;;;;;;;0.55;77.57;97905.97;1760319;80;21098;-62
2022/04/06 04:24:54;;;;;;;8.75;3.62;;;;;;;0.66;77.68;97913.30;1757383;80;20954;-62
2022/04/06 04:27:22;;;;;;;8.40;4.10;;;;;;;0.78;77.61;97913.29;1773144;79;20993;-63
2022/04/06 04:29:49;;;;;;;7.97;3.83;;;;;;;0.78;77.61;97913.29;1758447;80;20998;-62
2022/04/06 04:32:16;;;;;;;11.30;3.92;;;;;;;0.78;77.51;97914.58;1767698;79;21009;-63
2022/04/06 04:34:44;;;;;;;9.18;4.72;;;;;;;0.81;77.63;97909.32;1767199;79;21870;-62
2022/04/06 04:37:10;;;;;;;;;;;;;;;0.86;77.78;97904.86;1775362;80;20989;-64
2022/04/06 04:39:37;;;;;;;13.45;6.05;;;;;;;0.90;77.83;97911.58;1770454;80;20092;-63
2022/04/06 04:42:04;;;;;;;13.70;5.93;;;;;;;0.94;77.86;97907.98;1785952;79;20975;-63
2022/04/06 04:44:34;;;;;;;;;;;;;;;0.94;77.72;97902.84;1765709;79;21630;-63
2022/04/06 04:47:01;;;;;;;11.35;4.83;;;;;;;0.95;77.92;97899.36;1774974;80;21031;-62
2022/04/06 04:49:27;;;;;;;11.53;5.17;;;;;;;0.93;77.79;97901.17;1774716;79;20938;-60
2022/04/06 04:51:54;;;;;;;7.58;4.28;;;;;;;0.93;77.90;97908.88;1780284;80;21060;-60
2022/04/06 04:54:26;;;;;;;11.08;5.00;;;;;;;0.96;78.02;97911.34;1781915;79;20946;-60
2022/04/06 04:56:49;;;;;;;11.90;4.83;;;;;;;1.00;78.11;97921.88;1766603;80;20895;-61
2022/04/06 04:59:16;;;;;;;8.40;4.37;;;;;;;1.02;78.03;97908.98;1764041;79;21419;-61
2022/04/06 05:01:43;;;;;;;13.77;4.43;;;;;;;1.03;78.10;97915.34;1730852;81;21049;-61
2022/04/06 05:04:09;;;;;;;6.63;3.40;;;;;;;1.08;78.11;97918.58;1749864;81;21379;-61
2022/04/06 05:06:39;;;;;;;8.37;4.27;;;;;;;1.13;78.15;97922.72;1762107;80;20958;-61
2022/04/06 05:09:07;;;;;;;9.05;3.90;;;;;;;1.17;78.15;97919.13;1772053;79;21025;-62
2022/04/06 05:11:34;;;;;;;11.48;5.10;;;;;;;1.24;78.30;97915.44;1783945;80;21454;-62
2022/04/06 05:14:01;;;;;;;12.65;5.60;;;;;;;1.31;78.30;97919.42;1773627;79;21036;-62
2022/04/06 05:16:28;;;;;;;18.70;7.17;;;;;;;1.39;78.42;97925.11;1776075;79;21009;-62
2022/04/06 05:18:55;;;;;;;15.30;6.73;;;;;;;1.47;78.32;97920.52;1765693;80;20984;-64
2022/04/06 05:21:22;;;;;;;15.28;6.92;;;;;;;1.54;78.47;97927.10;1766434;80;21103;-62
2022/04/06 05:23:49;;;;;;;13.32;5.70;;;;;;;1.74;78.73;97920.33;1763561;79;21244;-63
2022/04/06 05:26:15;;;;;;;11.53;5.30;;;;;;;1.82;78.42;97922.14;1760747;80;20946;-63
2022/04/06 05:28:42;;;;;;;14.95;5.53;;;;;;;1.93;78.46;97921.25;1756773;80;21471;-62
2022/04/06 05:31:09;;;;;;;9.10;4.65;;;;;;;2.07;78.54;97924.97;1760299;80;20910;-63
2022/04/06 05:33:36;;;;;;;10.47;4.80;;;;;;;2.17;78.43;97921.13;1790967;79;20961;-63
2022/04/06 05:36:04;;;;;;;5.72;3.80;;;;;;;2.28;78.38;97921.51;1774981;78;21271;-63
2022/04/06 05:38:34;;;;;;;;;;;;;;;2.38;78.33;97921.52;1772214;80;21545;-63
2022/04/06 05:40:58;;;;;;;7.15;4.35;;;;;;;2.48;78.43;97919.36;1773589;80;20187;-63
2022/04/06 05:43:25;;;;;;;6.87;4.33;;;;;;;2.57;78.31;97920.23;1743700;81;21046;-63
2022/04/06 05:45:52;;;;;;;9.40;4.30;;;;;;;2.65;78.37;97917.34;1756072;80;21812;-65
2022/04/06 05:48:21;;;;;;;12.25;4.62;;;;;;;2.80;78.55;97921.83;1760855;80;21689;-63
2022/04/06 05:50:49;;;;;;;11.10;5.37;;;;;;;2.95;78.56;97927.20;1774471;79;21064;-63
2022/04/06 05:53:16;;;;;;;11.40;6.60;;;;;;;3.12;78.51;97924.69;1759167;80;28392;-63
2022/04/06 05:55:47;;;;;;;13.10;7.33;;;;;;;3.28;78.61;97923.08;1763253;79;21067;-61
2022/04/06 05:58:14;;;;;;;15.30;6.85;;;;;;;3.41;78.39;97925.07;1703256;80;21909;-62
2022/04/06 06:00:41;;;;;;;9.75;6.20;;;;;;;3.46;78.23;97928.28;1764103;80;21028;-61
2022/04/06 06:03:09;;;;;;;10.82;5.83;;;;;;;3.53;78.36;97930.50;1774606;79;21632;-60
2022/04/06 06:05:36;;;;;;;12.10;5.50;;;;;;;3.60;78.40;97934.91;1756904;79;20984;-61
2022/04/06 06:08:04;;;;;;;9.98;5.60;;;;;;;3.63;78.31;97928.30;1765671;79;21056;-61
2022/04/06 06:10:32;;;;;;;10.05;5.45;;;;;;;3.64;78.25;97933.87;1777849;79;21527;-61
2022/04/06 06:12:59;;;;;;;12.45;5.92;;;;;;;3.63;78.23;97932.18;1761844;80;21144;-60
2022/04/06 06:15:26;;;;;;;9.03;5.50;;;;;;;3.65;78.31;97937.28;1761313;79;20943;-60
2022/04/06 06:17:53;;;;;;;13.68;5.80;;;;;;;3.65;78.30;97939.40;1763118;79;20993;-61
2022/04/06 06:20:21;;;;;;;7.75;5.30;;;;;;;3.66;78.37;97935.90;1767110;79;21065;-61
2022/04/06 06:22:49;;;;;;;11.88;6.35;;;;;;;3.70;78.44;97941.77;1752857;80;20981;-62
2022/04/06 06:25:17;;;;;;;12.28;6.53;;;;;;;3.73;78.50;97946.33;1776069;80;21133;-63
2022/04/06 06:27:44;;;;;;;12.88;6.00;;;;;;;3.78;78.60;97944.80;1784057;80;21009;-63
2022/04/06 06:30:12;;;;;;;;;;;;;;;3.83;78.61;97948.00;1759553;79;21983;-64
2022/04/06 06:32:41;;;;;;;9.25;5.75;;;;;;;3.89;78.65;97941.70;1769453;80;20154;-63
2022/04/06 06:35:09;;;;;;;12.07;6.90;;;;;;;4.01;78.88;97948.88;1773580;79;20954;-63
2022/04/06 06:37:36;;;;;;;14.55;7.75;;;;;;;4.04;78.56;97946.13;1768128;79;21083;-63
2022/04/06 06:40:05;;;;;;;16.25;7.35;;;;;;;4.08;78.74;97942.47;1786339;79;20895;-62
2022/04/06 06:42:32;;;;;;;16.70;7.30;;;;;;;4.16;78.78;97942.93;1761455;81;21066;-63
2022/04/06 06:44:59;;;;;;;14.67;7.03;;;;;;;4.18;78.62;97946.28;1771391;79;21495;-63
2022/04/06 06:47:25;;;;;;;11.30;6.50;;;;;;;4.20;78.81;97943.17;1768926;80;20911;-62
2022/04/06 06:49:52;;;;;;;12.53;6.77;;;;;;;4.23;78.66;97941.73;1771106;79;21520;-62
2022/04/06 06:52:19;;;;;;;9.68;6.80;;;;;;;4.30;78.85;97944.00;1770940;79;20915;-62
2022/04/06 06:54:45;;;;;;;13.95;7.70;;;;;;;4.32;78.58;97935.27;1772108;79;21005;-62
2022/04/06 06:57:13;;;;;;;13.00;6.47;;;;;;;4.38;78.69;97934.12;1773373;80;20961;-64
2022/04/06 06:59:41;;;;;;;10.38;6.85;;;;;;;4.45;78.78;97935.45;1771830;80;21076;-62
2022/04/06 07:02:09;;;;;;;13.58;6.95;;;;;;;4.52;78.59;97930.83;1770063;80;21453;-63
2022/04/06 07:04:37;;;;;;;13.38;7.08;;;;;;;4.59;78.85;97931.70;1770092;79;21099;-65
2022/04/06 07:07:04;;;;;;;;;;;;;;;4.70;78.73;97920.81;1781015;80;21041;-63
2022/04/06 07:09:31;;;;;;;9.10;6.47;;;;;;;4.84;78.92;97923.52;1766717;80;20161;-63
2022/04/06 07:11:58;;;;;;;10.98;7.10;;;;;;;5.03;78.89;97919.50;1773142;80;20990;-63
2022/04/06 07:14:26;;;;;;;8.85;6.25;;;;;;;5.19;78.70;97928.58;1773525;79;21127;-63
2022/04/06 07:16:54;;;;;;;9.63;6.05;;;;;;;5.36;78.83;97927.66;1761235;80;20946;-63
2022/04/06 07:19:21;;;;;;;7.53;5.00;;;;;;;5.48;78.62;97912.73;1767855;80;20999;-63
2022/04/06 07:21:47;;;;;;;7.55;4.90;;;;;;;5.52;78.42;97918.13;1779839;79;20989;-63
2022/04/06 07:24:14;;;;;;;10.00;5.43;;;;;;;5.46;78.21;97922.36;1766721;79;20954;-63
2022/04/06 07:26:41;;;;;;;11.23;5.83;;;;;;;5.38;78.13;97912.42;1779961;79;21432;-63
2022/04/06 07:29:11;;;;;;;8.88;5.25;;;;;;;5.22;77.95;97910.76;1779887;79;21599;-63
2022/04/06 07:31:36;;;;;;;10.23;5.72;;;;;;;5.18;78.33;97917.00;1772865;80;21039;-63
2022/04/06 07:34:03;;;;;;;9.45;5.00;;;;;;;5.21;78.64;97906.05;1773603;80;21447;-63
2022/04/06 07:36:33;;;;;;;7.27;5.13;;;;;;;5.37;78.63;97907.31;1760324;80;20981;-63
2022/04/06 07:39:02;;;;;;;6.87;4.90;;;;;;;5.49;78.50;97910.54;1763233;80;21456;-64
2022/04/06 07:41:30;;;;;;;8.25;5.35;;;;;;;5.69;78.51;97898.23;1762911;80;20986;-63
2022/04/06 07:43:57;;;;;;;6.03;4.20;;;;;;;5.85;78.42;97897.71;1776901;80;21468;-63
2022/04/06 07:46:24;;;;;;;6.85;4.37;;;;;;;5.90;78.18;97895.70;1777239;79;20911;-65
2022/04/06 07:48:51;;;;;;;10.05;4.45;;;;;;;5.94;78.02;97899.00;1775060;80;21045;-64
2022/04/06 07:51:18;;;;;;;5.58;2.95;;;;;;;6.00;78.33;97898.17;1759611;80;21007;-64
2022/04/06 07:53:44;;;;;;;5.78;3.60;;;;;;;6.05;78.08;97902.64;1775836;79;20955;-64
2022/04/06 07:56:11;;;;;;;5.97;3.95;;;;;;;6.12;78.21;97902.27;1769294;79;21567;-65
2022/04/06 07:58:38;;;;;;;10.00;4.07;;;;;;;6.19;77.74;97901.84;1774478;79;20989;-64
2022/04/06 08:01:08;;;;;;;6.40;3.27;;;;;;;6.12;77.54;97893.20;1774967;79;21052;-64
2022/04/06 08:03:33;;;;;;;4.17;3.40;;;;;;;6.11;77.56;97892.84;1764189;80;22220;-64
2022/04/06 08:06:04;;;;;;;5.83;3.08;;;;;;;6.08;77.24;97903.36;1760042;80;20997;-64
2022/04/06 08:08:30;;;;;;;7.30;3.35;;;;;;;6.02;77.26;97906.70;1765077;80;21018;-65
2022/04/06 08:10:57;;;;;;;6.43;2.70;;;;;;;6.02;77.52;97900.22;1778970;80;20958;-66
2022/04/06 08:13:24;;;;;;;6.67;3.60;;;;;;;6.05;77.44;97905.23;1774215;79;21084;-64
2022/04/06 08:15:51;;;;;;;5.87;3.50;;;;;;;6.10;77.35;97910.59;1777939;79;21411;-65
2022/04/06 08:18:17;;;;;;;8.83;3.47;;;;;;;6.13;77.25;97911.70;1769879;79;20962;-62
2022/04/06 08:20:44;;;;;;;6.60;3.67;;;;;;;6.16;77.01;97921.89;1755406;80;20985;-63
2022/04/06 08:23:11;;;;;;;6.17;3.10;;;;;;;6.18;77.14;97916.16;1761826;79;21486;-63
2022/04/06 08:25:38;;;;;;;5.13;3.03;;;;;;;6.20;76.91;97922.09;1761519;80;20962;-63
2022/04/06 08:28:07;;;;;;;6.15;2.98;;;;;;;6.17;76.92;97923.58;1775586;80;21110;-64
2022/04/06 08:30:41;;;;;;;5.92;2.80;;;;;;;6.22;76.87;97911.19;1778185;79;21069;-66
2022/04/06 08:33:10;;;;;;;7.25;2.72;;;;;;;6.26;76.80;97910.08;1775317;79;21026;-62
2022/04/06 08:35:38;;;;;;;4.75;3.10;;;;;;;6.26;76.67;97907.02;1768895;80;21091;-62
2022/04/06 08:38:05;;;;;;;4.15;2.45;;;;;;;6.30;76.84;97907.66;1779157;80;21590;-63
2022/04/06 08:40:33;;;;;;;6.53;2.72;;;;;;;6.36;76.58;97902.14;1778945;80;21962;-61
2022/04/06 08:43:05;;;;;;;5.10;2.47;;;;;;;6.47;76.83;97902.34;1777639;80;21586;-64
2022/04/06 08:45:34;;;;;;;6.25;3.40;;;;;;;6.55;76.42;97899.73;1780954;80;21002;-64
2022/04/06 08:48:03;;;;;;;4.17;2.70;;;;;;;6.58;76.48;97898.25;1774495;80;20951;-64
2022/04/06 08:50:33;;;;;;;5.10;2.98;;;;;;;6.61;76.21;97890.28;1761066;80;21050;-63
2022/04/06 08:53:02;;;;;;;6.10;3.22;;;;;;;6.54;76.01;97892.89;1759864;80;21132;-63
2022/04/06 08:55:30;;;;;;;6.03;2.80;;;;;;;6.49;76.11;97886.20;1757563;80;21061;-63
2022/04/06 08:58:00;;;;;;;2.77;1.95;;;;;;;6.50;75.71;97887.89;1766309;79;20999;-64
2022/04/06 09:00:27;;;;;;;4.87;2.15;;;;;;;6.41;75.48;97901.41;1761465;79;20982;-62
2022/04/06 09:02:55;;;;;;;3.20;1.60;;;;;;;6.39;75.55;97904.55;1751588;80;26539;-62
2022/04/06 09:05:32;;;;;;;3.22;1.90;;;;;;;6.35;75.41;97905.64;1753025;80;21979;-63
2022/04/06 09:08:02;;;;;;;2.37;1.80;;;;;;;6.36;75.62;97903.44;1754741;80;24879;-62
2022/04/06 09:10:33;;;;;;;4.45;2.70;;;;;;;6.46;75.41;97898.52;1757739;79;20999;-63
2022/04/06 09:13:23;;;;;;;3.65;2.50;;;;;;;6.47;75.48;97903.63;1772476;79;21571;-62
2022/04/06 09:15:53;;;;;;;1.80;1.35;;;;;;;6.56;75.31;97901.42;1763183;80;21072;-62
2022/04/06 09:18:24;;;;;;;2.92;2.10;;;;;;;6.47;74.78;97888.08;1773758;79;21075;-62
2022/04/06 09:20:47;;;;;;;3.08;1.95;;;;;;;6.43;74.89;97886.58;1769830;79;21009;-63
2022/04/06 09:23:22;;;;;;;3.87;2.60;;;;;;;6.47;75.19;97882.89;1777062;80;21025;-62
2022/04/06 09:25:50;;;;;;;3.33;1.90;;;;;;;6.41;74.64;97878.08;1778065;80;21648;-63
2022/04/06 09:28:17;;;;;;;3.62;2.40;;;;;;;6.27;75.13;97878.04;1770734;80;21029;-62
2022/04/06 09:30:45;;;;;;;4.20;2.20;;;;;;;6.30;75.17;97874.44;1754903;80;21083;-62
2022/04/06 09:33:18;;;;;;;2.60;1.52;;;;;;;6.14;74.80;97869.34;1763831;79;21033;-62
2022/04/06 09:35:45;;;;;;;3.05;1.52;;;;;;;5.99;74.74;97858.95;1770862;79;21627;-62
2022/04/06 09:38:25;;;;;;;5.17;2.95;;;;;;;5.87;74.72;97857.02;1761612;79;21634;-62
2022/04/06 09:41:06;;;;;;;5.12;3.47;;;;;;;5.70;74.82;97845.52;1764388;79;21029;-62
2022/04/06 09:43:35;;;;;;;2.90;2.50;;;;;;;5.56;74.76;97848.42;1766561;80;21100;-62
2022/04/06 09:49:13;;;;;;;7.55;5.28;;;;;;;5.27;74.93;97828.55;1772011;80;21088;-62
2022/04/06 09:51:50;;;;;;;8.40;6.08;;;;;;;5.23;75.33;97824.44;1767727;80;21018;-62
2022/04/06 09:54:16;;;;;;;7.42;4.78;;;;;;;5.10;75.18;97814.78;1769910;80;21121;-63
2022/04/06 09:56:44;;;;;;;6.90;5.37;;;;;;;5.07;75.53;97821.42;1765198;80;22343;-63
2022/04/06 09:59:13;;;;;;;7.22;4.33;;;;;;;5.13;75.79;97819.79;1768473;79;21550;-63
2022/04/06 10:01:52;;;;;;;4.95;3.83;;;;;;;5.18;75.80;97821.27;1768745;79;21097;-63
2022/04/06 10:04:21;;;;;;;6.00;3.62;;;;;;;5.22;75.53;97821.49;1728754;80;21065;-65
2022/04/06 10:06:49;;;;;;;4.70;3.55;;;;;;;5.10;75.40;97814.78;1727542;81;21073;-65
2022/04/06 10:09:16;;;;;;;6.10;3.45;;;;;;;5.04;75.72;97822.89;1730128;82;21830;-65
2022/04/06 10:11:43;;;;;;;4.72;3.00;;;;;;;5.10;75.82;97817.38;1727900;81;21044;-63
2022/04/06 10:14:11;;;;;;;;;;;;;;;5.08;75.74;97806.27;1738682;80;21589;-63
2022/04/06 10:16:39;;;;;;;6.85;4.95;;;;;;;4.94;75.53;97808.78;1732416;80;20219;-63
2022/04/06 10:19:11;;;;;;;7.08;5.55;;;;;;;4.89;75.85;97806.91;1714305;81;21147;-63
2022/04/06 10:21:58;;;;;;;9.03;5.83;;;;;;;4.81;75.88;97805.20;1728507;81;21109;-63
2022/04/06 10:24:51;;;;;;;3.65;2.90;;;;;;;4.76;75.83;97794.27;1706985;81;21040;-63
2022/04/06 10:27:39;;;;;;;6.83;5.15;;;;;;;4.64;75.81;97790.59;1736606;80;21151;-63
2022/04/06 10:30:16;;;;;;;4.80;3.20;;;;;;;4.62;75.99;97775.19;1711060;81;22238;-63
2022/04/06 10:32:45;;;;;;;;;;;;;;;4.47;75.93;97776.83;1730811;80;21048;-63
2022/04/06 10:35:31;;;;;;;5.28;3.67;;;;;;;4.33;75.98;97779.77;1736457;80;21792;-63
2022/04/06 10:38:05;;;;;;;3.55;2.90;;;;;;;4.29;76.26;97774.41;1715754;81;21573;-64
2022/04/06 10:41:03;;;;;;;4.28;3.17;;;;;;;4.36;76.58;97761.52;1739993;80;20989;-65
2022/04/06 10:43:43;;;;;;;4.53;2.95;;;;;;;4.38;76.51;97765.70;1706081;81;21040;-64
2022/04/06 10:46:12;;;;;;;3.52;2.90;;;;;;;4.47;76.77;97763.08;1737083;81;22331;-63
2022/04/06 10:49:12;;;;;;;7.00;5.42;;;;;;;4.53;76.74;97760.16;1721615;81;21073;-63
2022/04/06 10:51:48;;;;;;;8.25;7.40;;;;;;;4.60;76.68;97751.16;1747332;81;21081;-63
2022/04/06 10:54:21;;;;;;;4.25;3.60;;;;;;;4.58;76.73;97752.98;1695459;81;21036;-63
2022/04/06 10:57:05;;;;;;;5.62;5.08;;;;;;;4.54;76.61;97754.09;1749718;80;21618;-63
2022/04/06 11:00:04;;;;;;;2.98;2.40;;;;;;;4.48;76.74;97755.69;1726252;81;21012;-63
2022/04/06 11:02:52;;;;;;;3.85;2.50;;;;;;;4.35;76.74;97745.66;1745840;80;21309;-71
2022/04/06 11:05:49;;;;;;;2.90;1.90;;;;;;;4.28;77.00;97757.22;1769548;80;21065;-64
2022/04/06 11:11:51;;;;;;;2.65;2.42;;;;;;;4.44;77.52;97739.98;1766727;79;20187;-65
2022/04/06 11:14:28;;;;;;;4.05;3.47;;;;;;;4.46;77.42;97742.87;1713279;80;21150;-65
2022/04/06 11:17:37;;;;;;;4.58;2.95;;;;;;;4.42;77.40;97732.77;1750970;80;21074;-64
2022/04/06 11:20:25;;;;;;;3.72;2.52;;;;;;;4.44;77.59;97725.31;1881740;75;22748;-63
2022/04/06 11:22:57;;;;;;;5.17;3.17;;;;;;;4.42;77.65;97728.89;1824817;77;20981;-63
2022/04/06 11:25:30;;;;;;;4.22;2.80;;;;;;;4.44;77.70;97724.48;1854470;77;21090;-64
2022/04/06 11:28:09;;;;;;;4.15;2.92;;;;;;;4.44;77.81;97714.14;1841166;77;21918;-64
2022/04/06 11:30:38;;;;;;;4.15;2.40;;;;;;;4.52;77.93;97711.15;1844200;77;21043;-64
2022/04/06 11:33:06;;;;;;;2.98;2.00;;;;;;;4.53;77.87;97717.52;1842951;77;20966;-65
2022/04/06 11:35:36;;;;;;;2.05;1.72;;;;;;;4.54;78.05;97730.83;1850863;77;21019;-64
2022/04/06 11:38:09;;;;;;;2.98;1.92;;;;;;;4.61;78.15;97717.92;1845046;77;21910;-64
2022/04/06 11:40:39;;;;;;;3.27;2.22;;;;;;;4.77;78.47;97706.75;1830964;77;20963;-64
2022/04/06 11:43:06;;;;;;;4.00;2.50;;;;;;;5.01;78.58;97678.19;1832052;77;20954;-64
2022/04/06 11:45:40;;;;;;;5.17;4.17;;;;;;;5.18;78.54;97672.51;1838992;77;21281;-64
2022/04/06 11:48:08;;;;;;;2.90;2.20;;;;;;;5.19;78.45;97672.91;1844158;76;21051;-64
2022/04/06 11:50:38;;;;;;;2.80;1.77;;;;;;;5.19;78.42;97694.89;1841894;77;21047;-64
2022/04/06 11:53:15;;;;;;;3.33;2.20;;;;;;;5.20;78.67;97686.20;1838284;77;21072;-64
2022/04/06 11:56:05;;;;;;;2.42;2.12;;;;;;;5.14;78.44;97681.74;1842803;76;21092;-64
2022/04/06 11:58:44;;;;;;;2.67;2.12;;;;;;;5.16;78.78;97676.50;1823022;77;22676;-64
2022/04/06 12:01:17;;;;;;;2.50;1.80;;;;;;;5.14;78.69;97666.22;1791057;79;21599;-64